Aviation Digital Data Service (ADDS)

Output produced by TAFs form (1739 UTC 25 February 2018)
found at http://www.aviationweather.gov/adds/tafs/
 
KPDK 251653Z 23005KT 10SM -RA OVC090 17/15 A3016 RMK AO2 RAE1555B20 SLP205 P0001 T01670150
KPDK 251526Z 2515/2612 26010KT 6SM -SHRA BR BKN015 
     FM252000 28008KT P6SM -SHRA OVC025 
     FM260000 09002KT 6SM BR VCSH OVC015 
     FM260500 03003KT 3SM -RA BR OVC009 
     FM260900 13004KT 2SM -RA BR OVC006